Time;durP1;ratioP1;P1;durP2;ratioP2;P2;SDS_P1;SDS_P2;PMS_P1;PMS_P2;Temp;Humidity;BMP_temperature;BMP_pressure;BME280_temperature;BME280_humidity;BME280_pressure;Samples;Min_cycle;Max_cycle;Signal;HPM_P1;HPM_P2
2022/05/28 00:01:15;;;;;;;3.50;1.23;;;;;;;19.60;39.94;92395.09;5012747;28;20026;-74
2022/05/28 00:03:42;;;;;;;4.22;1.27;;;;;;;19.65;39.72;92394.84;5012795;28;20053;-74
2022/05/28 00:06:16;;;;;;;1.60;1.10;;;;;;;19.75;39.34;92389.03;5012801;28;20554;-74
2022/05/28 00:08:42;;;;;;;9.70;1.30;;;;;;;19.81;39.02;92386.88;4978874;28;20034;-74
2022/05/28 00:11:21;;;;;;;6.32;1.40;;;;;;;19.78;39.09;92382.28;4995182;28;20045;-74
2022/05/28 00:13:48;;;;;;;6.30;1.30;;;;;;;19.84;39.25;92382.78;5009705;28;20049;-74
2022/05/28 00:16:14;;;;;;;3.78;1.30;;;;;;;19.81;39.31;92375.50;5012723;28;20036;-74
2022/05/28 00:18:41;;;;;;;5.25;1.42;;;;;;;19.74;39.66;92386.72;4995015;28;20042;-74
2022/05/28 00:21:08;;;;;;;5.38;1.30;;;;;;;19.66;40.03;92383.13;4994989;28;20030;-74
2022/05/28 00:23:35;;;;;;;3.63;1.42;;;;;;;19.88;38.95;92370.34;4994758;28;20053;-74
2022/05/28 00:26:02;;;;;;;4.57;1.30;;;;;;;19.80;38.82;92374.72;4994852;28;20514;-74
2022/05/28 00:28:28;;;;;;;5.03;1.20;;;;;;;19.83;39.03;92376.69;4995171;28;20041;-74
2022/05/28 00:30:53;;;;;;;4.70;1.38;;;;;;;19.88;39.59;92365.03;4994793;28;20100;-74
2022/05/28 00:33:19;;;;;;;5.28;1.45;;;;;;;19.95;38.90;92359.88;4978533;28;20049;-74
2022/05/28 00:35:45;;;;;;;2.58;1.40;;;;;;;19.87;39.36;92350.22;5012055;28;20044;-74
2022/05/28 00:38:10;;;;;;;4.57;1.38;;;;;;;19.85;39.11;92353.22;4994483;28;20046;-74
2022/05/28 00:40:36;;;;;;;4.18;1.38;;;;;;;19.81;39.58;92359.56;4994616;28;20561;-74
2022/05/28 00:43:05;;;;;;;2.38;1.20;;;;;;;19.91;38.91;92349.16;4978267;28;20037;-74
2022/05/28 00:45:33;;;;;;;4.68;1.30;;;;;;;19.84;39.15;92353.56;5010705;28;20034;-74
2022/05/28 00:48:02;;;;;;;4.45;1.20;;;;;;;19.78;39.07;92344.31;4992501;28;20042;-74
2022/05/28 00:50:28;;;;;;;3.47;1.40;;;;;;;19.89;39.19;92338.13;4974984;28;20053;-74
2022/05/28 00:52:53;;;;;;;2.47;1.10;;;;;;;19.81;39.54;92340.97;4998628;28;20461;-74
2022/05/28 00:55:20;;;;;;;3.20;1.15;;;;;;;19.73;39.66;92337.41;4994214;28;20500;-74
2022/05/28 00:57:46;;;;;;;3.92;0.98;;;;;;;19.78;39.51;92334.47;5011795;28;20442;-74
2022/05/28 01:00:15;;;;;;;5.32;1.30;;;;;;;19.69;39.36;92339.97;5011742;28;20084;-74
2022/05/28 01:02:57;;;;;;;3.72;1.20;;;;;;;19.68;39.59;92333.09;5011719;28;20041;-74
2022/05/28 01:05:33;;;;;;;2.75;1.35;;;;;;;19.67;39.60;92334.19;5011805;28;20100;-74
2022/05/28 01:08:38;;;;;;;3.55;1.30;;;;;;;19.72;39.13;92333.19;4994093;28;20044;-74
2022/05/28 01:11:47;;;;;;;2.97;1.27;;;;;;;19.77;39.07;92324.97;4994283;28;20044;-74
2022/05/28 01:14:51;;;;;;;6.00;1.30;;;;;;;19.78;38.78;92334.47;5011550;28;20034;-74
2022/05/28 01:17:28;;;;;;;2.28;1.10;;;;;;;19.68;39.37;92325.13;4964291;28;20156;-74
2022/05/28 01:20:26;;;;;;;8.85;1.40;;;;;;;19.63;39.91;92317.41;5011465;28;20041;-74
2022/05/28 01:23:19;;;;;;;2.78;1.30;;;;;;;19.68;39.52;92309.19;4986508;28;20045;-74
2022/05/28 01:26:08;;;;;;;1.63;1.00;;;;;;;19.71;39.57;92302.44;4993895;28;20503;-74
2022/05/28 01:28:46;;;;;;;1.85;1.10;;;;;;;19.60;39.60;92318.13;5011440;28;20037;-74
2022/05/28 01:31:13;;;;;;;2.58;1.00;;;;;;;19.51;39.77;92298.94;5012174;28;20261;-74
2022/05/28 01:33:41;;;;;;;3.55;1.08;;;;;;;19.47;40.04;92296.22;5011446;28;20438;-74
2022/05/28 01:36:09;;;;;;;2.65;1.05;;;;;;;19.47;39.96;92298.88;5011204;28;20092;-74
2022/05/28 01:38:37;;;;;;;2.65;1.40;;;;;;;19.56;39.82;92293.38;5011281;28;20053;-74
2022/05/28 01:41:06;;;;;;;5.10;1.20;;;;;;;19.47;39.86;92287.47;5010689;28;20108;-73
2022/05/28 01:43:37;;;;;;;8.45;1.00;;;;;;;19.43;39.91;92286.63;5011164;28;20376;-74
2022/05/28 01:46:04;;;;;;;2.70;1.08;;;;;;;19.48;39.74;92279.19;5011087;28;20056;-73
2022/05/28 01:48:30;;;;;;;5.28;1.10;;;;;;;19.53;39.39;92265.63;5011171;28;20033;-73
2022/05/28 01:50:57;;;;;;;11.60;1.50;;;;;;;19.49;39.43;92264.78;4977388;28;20045;-74
2022/05/28 01:56:10;;;;;;;7.15;1.17;;;;;;;19.33;39.96;92251.53;5012135;28;20466;-74
2022/05/28 01:58:36;;;;;;;1.90;1.13;;;;;;;19.32;39.98;92255.31;5014938;28;20054;-74
2022/05/28 02:01:05;;;;;;;7.72;1.35;;;;;;;19.34;39.98;92257.63;4997384;28;20042;-74
2022/05/28 02:03:34;;;;;;;6.70;1.20;;;;;;;19.32;40.04;92251.91;5014983;28;20549;-74
2022/05/28 02:06:00;;;;;;;3.60;1.15;;;;;;;19.36;39.23;92250.09;5015286;28;20030;-74
2022/05/28 02:08:28;;;;;;;2.75;1.05;;;;;;;19.38;39.43;92241.78;4984864;28;20523;-74
2022/05/28 02:11:09;;;;;;;4.85;1.23;;;;;;;19.45;39.60;92241.94;4997368;28;20046;-74
2022/05/28 02:13:47;;;;;;;1.97;1.00;;;;;;;19.37;39.63;92230.41;5015152;28;20084;-74
2022/05/28 02:16:21;;;;;;;5.35;1.27;;;;;;;19.39;39.32;92233.47;5015131;28;20030;-74
2022/05/28 02:18:56;;;;;;;4.05;1.02;;;;;;;19.37;38.92;92229.66;5014935;28;20088;-74
2022/05/28 02:21:25;;;;;;;2.72;1.02;;;;;;;19.32;38.88;92220.84;4983677;28;20035;-74
2022/05/28 02:24:26;;;;;;;1.20;0.82;;;;;;;19.42;38.60;92226.72;4995282;28;20026;-73
2022/05/28 02:26:57;;;;;;;3.45;1.10;;;;;;;19.45;38.80;92226.00;4967374;28;20046;-74
2022/05/28 02:29:24;;;;;;;6.22;1.25;;;;;;;19.46;38.60;92220.38;4997123;28;20045;-74
2022/05/28 02:31:50;;;;;;;2.10;1.33;;;;;;;19.50;38.67;92212.47;4997710;28;20263;-74
2022/05/28 02:34:17;;;;;;;3.08;1.05;;;;;;;19.49;38.75;92200.31;4997053;28;20097;-74
2022/05/28 02:36:43;;;;;;;4.45;1.15;;;;;;;19.49;38.47;92208.28;4996744;28;20029;-74
2022/05/28 02:39:09;;;;;;;4.95;1.20;;;;;;;19.40;38.92;92199.75;4980713;28;20122;-73
2022/05/28 02:41:34;;;;;;;6.45;1.25;;;;;;;19.34;39.35;92204.53;4997003;28;20515;-74
2022/05/28 02:44:00;;;;;;;2.78;1.00;;;;;;;19.29;39.04;92192.31;4996780;28;20046;-74
2022/05/28 02:46:26;;;;;;;5.63;1.52;;;;;;;19.25;39.27;92202.09;4996785;28;20030;-74
2022/05/28 02:48:51;;;;;;;6.88;1.05;;;;;;;19.29;38.90;92197.63;5014326;28;20088;-74
2022/05/28 02:51:20;;;;;;;2.75;1.00;;;;;;;19.25;39.38;92191.50;4980521;28;20044;-74
2022/05/28 02:53:50;;;;;;;1.35;0.93;;;;;;;19.22;39.48;92192.16;5014185;28;20510;-74
2022/05/28 02:56:17;;;;;;;4.03;1.33;;;;;;;19.23;38.94;92183.13;4996644;28;20054;-74
2022/05/28 02:58:43;;;;;;;3.75;1.17;;;;;;;19.28;39.46;92177.53;4996591;28;20033;-74
2022/05/28 03:01:18;;;;;;;1.40;0.90;;;;;;;19.20;39.44;92190.97;5014206;28;20040;-74
2022/05/28 03:03:44;;;;;;;3.92;0.90;;;;;;;19.16;39.21;92185.59;4996439;28;20061;-74
2022/05/28 03:06:10;;;;;;;4.40;1.00;;;;;;;19.25;39.52;92180.88;4980104;28;20033;-74
2022/05/28 03:08:36;;;;;;;3.08;1.00;;;;;;;19.15;39.73;92192.03;4996267;28;20045;-74
2022/05/28 03:11:01;;;;;;;3.15;1.20;;;;;;;19.16;39.60;92187.47;4980115;28;20492;-74
2022/05/28 03:13:27;;;;;;;2.97;0.98;;;;;;;19.10;39.59;92179.78;5013721;28;20037;-74
2022/05/28 03:15:52;;;;;;;4.30;1.00;;;;;;;19.04;40.08;92193.66;5013618;28;20034;-73
2022/05/28 03:18:18;;;;;;;2.80;0.98;;;;;;;19.03;40.05;92184.19;4996272;28;20431;-74
2022/05/28 03:20:43;;;;;;;2.72;1.08;;;;;;;18.98;40.26;92182.56;4976575;28;20034;-74
2022/05/28 03:23:09;;;;;;;2.40;1.17;;;;;;;18.96;40.10;92176.06;4994675;28;20049;-74
2022/05/28 03:25:35;;;;;;;3.08;1.30;;;;;;;18.93;40.26;92175.63;4983900;28;20036;-73
2022/05/28 03:28:00;;;;;;;5.05;1.25;;;;;;;18.92;39.54;92163.50;5013567;28;20541;-74
2022/05/28 03:30:26;;;;;;;2.40;1.00;;;;;;;18.87;39.91;92163.00;4980069;28;20471;-73
2022/05/28 03:32:51;;;;;;;7.22;1.83;;;;;;;18.92;39.60;92152.88;4995746;28;20123;-74
2022/05/28 03:35:17;;;;;;;3.55;1.00;;;;;;;19.00;39.58;92153.03;4995965;28;20503;-73
2022/05/28 03:37:43;;;;;;;6.28;1.20;;;;;;;19.01;40.04;92160.66;4995771;28;20117;-74
2022/05/28 03:40:09;;;;;;;5.40;1.15;;;;;;;18.90;40.34;92160.41;4979988;28;20439;-74
2022/05/28 03:42:35;;;;;;;4.68;1.38;;;;;;;18.93;40.40;92156.28;4995521;28;20038;-74
2022/05/28 03:45:00;;;;;;;1.88;0.90;;;;;;;18.85;40.38;92158.03;5013268;28;20529;-74
2022/05/28 03:47:26;;;;;;;3.95;1.10;;;;;;;18.86;40.46;92180.00;5013134;28;20041;-74
2022/05/28 03:49:52;;;;;;;8.48;1.23;;;;;;;18.79;40.61;92179.84;4995558;28;20180;-74
2022/05/28 03:52:18;;;;;;;1.98;1.10;;;;;;;18.73;40.72;92172.13;4995446;28;20092;-73
2022/05/28 03:54:43;;;;;;;1.92;1.00;;;;;;;18.77;40.21;92172.22;5012924;28;20080;-74
2022/05/28 03:57:14;;;;;;;3.83;1.27;;;;;;;18.82;40.18;92169.31;4995333;28;20045;-74
2022/05/28 03:59:40;;;;;;;6.22;0.95;;;;;;;18.77;40.74;92166.13;5013151;28;20038;-74
2022/05/28 04:02:06;;;;;;;5.85;1.20;;;;;;;18.80;40.45;92168.91;5012839;28;20069;-74
2022/05/28 04:04:32;;;;;;;1.48;0.90;;;;;;;18.72;40.66;92175.13;5012711;28;20424;-74
2022/05/28 04:06:59;;;;;;;4.32;1.27;;;;;;;18.81;40.05;92178.38;4995368;28;20034;-74
2022/05/28 04:09:24;;;;;;;2.42;1.08;;;;;;;18.89;39.98;92168.69;5012789;28;20104;-74
2022/05/28 04:11:50;;;;;;;1.77;0.93;;;;;;;18.81;40.55;92173.09;5012835;28;20045;-74
2022/05/28 04:14:15;;;;;;;1.55;0.93;;;;;;;18.76;40.79;92170.69;4994933;28;20034;-74
2022/05/28 04:16:41;;;;;;;2.72;1.15;;;;;;;18.80;40.48;92171.56;5012786;28;20104;-74
2022/05/28 04:19:06;;;;;;;2.25;1.35;;;;;;;18.83;40.39;92173.50;4994421;28;20074;-74
2022/05/28 04:21:33;;;;;;;2.55;1.00;;;;;;;18.79;40.20;92177.97;4995397;28;20128;-73
2022/05/28 04:23:58;;;;;;;6.03;1.02;;;;;;;18.83;40.03;92165.56;4995174;28;20046;-73
2022/05/28 04:26:24;;;;;;;3.15;1.00;;;;;;;18.80;40.53;92168.91;4978861;28;20438;-73
2022/05/28 04:28:49;;;;;;;4.07;0.93;;;;;;;18.77;40.21;92169.59;5013587;28;20040;-73
2022/05/28 04:31:15;;;;;;;6.72;1.00;;;;;;;19.01;39.61;92167.84;4991755;28;20420;-73
2022/05/28 04:33:41;;;;;;;1.83;1.20;;;;;;;19.05;39.58;92173.97;4993711;28;20042;-73
2022/05/28 04:36:06;;;;;;;5.10;1.00;;;;;;;19.10;39.10;92157.81;4996801;28;20037;-73
2022/05/28 04:38:32;;;;;;;3.58;1.20;;;;;;;19.06;39.74;92168.34;5013637;28;20038;-74
2022/05/28 04:40:57;;;;;;;1.95;0.82;;;;;;;19.18;39.60;92164.03;4994802;28;20050;-73
2022/05/28 04:43:23;;;;;;;4.47;1.30;;;;;;;19.20;39.13;92159.91;4994534;28;20037;-74
2022/05/28 04:45:49;;;;;;;4.28;1.00;;;;;;;19.27;39.16;92165.38;4978266;28;20428;-73
2022/05/28 04:48:14;;;;;;;4.03;1.30;;;;;;;19.20;39.17;92167.09;4994532;28;20033;-74
2022/05/28 04:50:40;;;;;;;2.00;1.00;;;;;;;19.25;39.63;92159.66;4994539;28;20045;-74
2022/05/28 04:53:06;;;;;;;2.25;1.10;;;;;;;19.20;39.64;92159.16;4994499;28;20033;-74
2022/05/28 04:55:31;;;;;;;3.97;1.13;;;;;;;19.28;39.37;92166.16;4994434;28;20116;-74
2022/05/28 04:57:57;;;;;;;4.13;0.95;;;;;;;19.32;38.95;92167.75;4994431;28;20443;-73
2022/05/28 05:00:25;;;;;;;3.20;1.35;;;;;;;19.31;39.22;92166.19;4994096;28;20042;-74
2022/05/28 05:02:51;;;;;;;3.13;0.90;;;;;;;19.25;39.82;92166.81;4993675;28;20040;-74
2022/05/28 05:05:17;;;;;;;3.42;0.90;;;;;;;19.34;38.84;92162.09;4974451;28;20446;-74
2022/05/28 05:07:43;;;;;;;8.57;1.27;;;;;;;19.46;39.15;92154.00;4974807;28;20042;-74
2022/05/28 05:10:10;;;;;;;2.10;0.93;;;;;;;19.46;39.41;92164.63;4992057;28;20141;-74
2022/05/28 05:12:36;;;;;;;4.97;0.98;;;;;;;19.40;39.29;92166.00;4990298;28;20046;-74
2022/05/28 05:15:02;;;;;;;1.83;0.88;;;;;;;19.40;39.46;92165.25;5011323;28;20033;-73
2022/05/28 05:17:28;;;;;;;2.17;1.00;;;;;;;19.39;40.50;92153.88;5011441;28;20168;-74
2022/05/28 05:19:53;;;;;;;3.92;1.15;;;;;;;19.32;40.03;92157.16;5009907;28;20502;-77
2022/05/28 05:22:20;;;;;;;3.55;1.08;;;;;;;19.32;40.21;92161.69;4994358;28;20049;-76
2022/05/28 05:24:46;;;;;;;4.32;1.23;;;;;;;19.33;40.43;92163.97;5006095;28;20033;-76
2022/05/28 05:27:12;;;;;;;5.32;0.93;;;;;;;19.37;40.18;92165.94;4995467;28;20042;-77
2022/05/28 05:29:38;;;;;;;4.07;1.02;;;;;;;19.42;39.74;92166.44;4993246;28;20045;-77
2022/05/28 05:32:05;;;;;;;2.38;1.02;;;;;;;19.45;40.37;92172.91;4988291;28;20034;-77
2022/05/28 05:34:30;;;;;;;6.85;0.98;;;;;;;19.50;39.94;92176.09;4988003;28;20070;-75
2022/05/28 05:36:56;;;;;;;3.28;1.00;;;;;;;19.52;39.93;92173.06;5001152;28;20566;-76
2022/05/28 05:39:22;;;;;;;2.33;1.02;;;;;;;19.72;37.86;92161.38;5006547;28;20034;-77
2022/05/28 05:41:48;;;;;;;2.92;1.15;;;;;;;19.86;38.21;92171.50;4972105;28;20049;-76
2022/05/28 05:44:13;;;;;;;1.75;0.90;;;;;;;19.88;38.76;92173.78;4955065;28;20039;-76
2022/05/28 05:46:41;;;;;;;3.45;1.00;;;;;;;20.11;38.74;92163.22;4986705;28;20034;-77
2022/05/28 05:49:08;;;;;;;1.55;1.00;;;;;;;21.04;37.59;92155.97;4987286;28;20141;-77
2022/05/28 05:51:38;;;;;;;2.00;1.00;;;;;;;21.80;36.46;92163.81;5006553;28;20033;-76
2022/05/28 05:54:04;;;;;;;2.75;1.15;;;;;;;22.29;35.65;92160.16;5006112;28;20023;-77
2022/05/28 05:56:31;;;;;;;2.03;1.00;;;;;;;22.58;34.82;92155.81;4991933;28;20366;-76
2022/05/28 05:58:56;;;;;;;1.60;1.10;;;;;;;22.91;34.42;92146.16;5006059;28;20108;-76
2022/05/28 06:01:23;;;;;;;0.77;0.77;;;;;;;23.29;34.05;92149.47;4987549;28;20037;-80
2022/05/28 06:03:49;;;;;;;4.68;0.93;;;;;;;23.53;32.40;92139.28;4978437;28;20079;-77
2022/05/28 06:06:16;;;;;;;4.55;0.90;;;;;;;23.61;32.23;92151.53;4989135;28;20038;-77
2022/05/28 06:08:42;;;;;;;4.68;1.10;;;;;;;23.69;32.86;92147.75;5005162;28;20033;-77
2022/05/28 06:11:09;;;;;;;3.63;1.00;;;;;;;24.10;32.91;92136.84;4991686;28;20040;-78
2022/05/28 06:13:35;;;;;;;4.60;1.02;;;;;;;24.67;32.31;92146.84;5007385;28;20030;-78
2022/05/28 06:16:02;;;;;;;3.08;0.98;;;;;;;25.38;28.95;92135.31;5012912;28;20033;-78
2022/05/28 06:18:29;;;;;;;3.47;1.10;;;;;;;25.63;30.48;92145.97;4991782;28;20448;-77
2022/05/28 06:20:55;;;;;;;2.78;1.08;;;;;;;26.08;29.97;92140.06;4998739;28;20042;-77
2022/05/28 06:23:21;;;;;;;3.05;1.10;;;;;;;26.28;28.20;92133.03;4992469;28;20048;-78
2022/05/28 06:25:47;;;;;;;6.80;1.40;;;;;;;26.05;29.81;92135.47;5009029;28;20030;-77
2022/05/28 06:28:13;;;;;;;4.20;1.00;;;;;;;25.66;30.01;92141.75;4977442;28;20042;-78
2022/05/28 06:30:40;;;;;;;1.63;1.10;;;;;;;25.63;31.36;92142.53;4976412;28;20048;-78
2022/05/28 06:33:06;;;;;;;1.77;1.10;;;;;;;25.59;29.68;92147.13;5005055;28;20138;-78
2022/05/28 06:35:32;;;;;;;2.30;0.95;;;;;;;25.03;30.77;92134.22;4995727;28;20524;-77
2022/05/28 06:37:58;;;;;;;3.42;1.10;;;;;;;25.21;28.97;92125.41;4994563;28;20050;-77
2022/05/28 06:40:25;;;;;;;5.82;1.02;;;;;;;24.74;30.32;92136.16;4994761;28;20038;-78
2022/05/28 06:42:51;;;;;;;6.63;1.00;;;;;;;24.62;30.99;92142.66;5008061;28;20454;-77
2022/05/28 06:45:18;;;;;;;4.90;1.00;;;;;;;24.76;31.63;92141.13;4982013;28;20034;-77
2022/05/28 06:47:45;;;;;;;6.68;1.88;;;;;;;25.03;31.35;92126.19;5015038;28;20108;-78
2022/05/28 06:52:57;;;;;;;6.50;1.27;;;;;;;24.88;31.60;92132.69;5013030;28;20455;-77
2022/05/28 06:55:22;;;;;;;4.15;1.20;;;;;;;24.94;29.79;92109.75;4996277;28;20037;-77
2022/05/28 06:57:49;;;;;;;3.55;1.20;;;;;;;24.82;31.21;92112.84;5012678;28;20074;-77
2022/05/28 07:00:14;;;;;;;5.90;0.90;;;;;;;24.88;31.06;92105.91;5014821;28;20045;-77
2022/05/28 07:02:40;;;;;;;6.28;1.20;;;;;;;24.73;29.87;92108.63;5017699;28;20038;-77
2022/05/28 07:05:06;;;;;;;1.75;1.02;;;;;;;24.65;30.93;92115.13;4964243;28;20080;-77
2022/05/28 07:07:32;;;;;;;5.22;1.17;;;;;;;24.90;31.54;92114.34;5013581;28;20034;-77
2022/05/28 07:09:57;;;;;;;6.38;1.27;;;;;;;25.06;31.47;92116.59;4995016;28;20036;-77
2022/05/28 07:12:23;;;;;;;5.10;1.00;;;;;;;25.10;29.87;92107.41;5012358;28;20068;-77
2022/05/28 07:14:48;;;;;;;4.25;1.27;;;;;;;25.39;31.18;92109.28;4992964;28;20120;-77
2022/05/28 07:17:14;;;;;;;2.88;0.90;;;;;;;25.52;30.16;92108.47;5009541;28;20456;-77
2022/05/28 07:19:41;;;;;;;3.90;1.13;;;;;;;25.45;30.21;92111.19;4992991;28;20035;-78
2022/05/28 07:22:08;;;;;;;5.53;0.90;;;;;;;25.46;28.96;92102.00;4993338;28;20033;-77
2022/05/28 07:24:33;;;;;;;2.80;1.05;;;;;;;25.24;29.92;92100.53;4991743;28;20080;-77
2022/05/28 07:26:59;;;;;;;3.80;0.98;;;;;;;25.43;30.29;92105.44;4990584;28;20792;-77
2022/05/28 07:29:25;;;;;;;6.90;0.90;;;;;;;25.52;29.43;92100.44;5013103;28;20046;-77
2022/05/28 07:31:50;;;;;;;5.20;1.30;;;;;;;25.77;30.57;92100.31;5002002;28;20034;-76
2022/05/28 07:34:16;;;;;;;1.67;0.93;;;;;;;25.90;28.65;92100.69;4998941;28;20052;-75
2022/05/28 07:36:42;;;;;;;2.58;0.95;;;;;;;25.96;28.25;92098.34;4982227;28;20097;-75
2022/05/28 07:39:07;;;;;;;6.68;1.30;;;;;;;25.74;30.22;92095.00;4991590;28;20046;-75
2022/05/28 07:41:33;;;;;;;6.20;1.00;;;;;;;25.65;28.07;92098.09;5012185;28;20038;-75
2022/05/28 07:43:59;;;;;;;2.88;0.80;;;;;;;25.72;29.09;92094.63;5015207;28;20083;-75
2022/05/28 07:46:27;;;;;;;4.70;0.90;;;;;;;25.78;29.13;92093.03;5014664;28;20041;-75
2022/05/28 07:48:55;;;;;;;2.63;0.75;;;;;;;25.91;30.45;92088.03;5014908;28;20069;-75
2022/05/28 07:51:21;;;;;;;3.80;1.00;;;;;;;25.98;30.40;92087.22;5022958;28;20179;-75
2022/05/28 07:53:46;;;;;;;1.85;0.82;;;;;;;25.90;29.64;92087.28;5010778;28;20136;-75
2022/05/28 07:56:12;;;;;;;3.47;0.98;;;;;;;26.06;28.60;92094.09;5011310;28;20175;-75
2022/05/28 07:58:39;;;;;;;2.30;0.80;;;;;;;25.92;28.12;92084.97;4988708;28;20038;-75
2022/05/28 08:01:06;;;;;;;4.20;1.05;;;;;;;25.45;28.85;92076.34;4992801;28;20104;-75
2022/05/28 08:03:32;;;;;;;3.50;0.80;;;;;;;25.65;29.17;92083.94;4992810;28;20583;-75
2022/05/28 08:05:58;;;;;;;2.75;0.82;;;;;;;25.63;27.41;92081.66;5001215;28;20033;-75
2022/05/28 08:08:26;;;;;;;2.00;0.90;;;;;;;24.96;29.99;92078.00;4992584;28;20464;-75
2022/05/28 08:10:52;;;;;;;1.67;0.77;;;;;;;25.06;31.76;92077.22;4992817;28;20034;-75
2022/05/28 08:13:21;;;;;;;1.75;0.80;;;;;;;24.92;29.94;92082.59;4992554;28;20104;-75
2022/05/28 08:15:48;;;;;;;2.08;0.90;;;;;;;25.37;30.28;92082.88;4992763;28;20026;-75
2022/05/28 08:18:16;;;;;;;1.67;0.80;;;;;;;25.77;29.54;92083.50;5010199;28;20121;-75
2022/05/28 08:23:26;;;;;;;2.45;1.08;;;;;;;25.73;27.38;92072.00;5012126;28;20484;-75
2022/05/28 08:25:52;;;;;;;10.30;2.55;;;;;;;25.16;28.01;92083.69;4977407;28;20037;-75
2022/05/28 08:28:19;;;;;;;1.63;0.70;;;;;;;25.51;29.59;92071.34;4993287;28;20487;-75
2022/05/28 08:30:45;;;;;;;4.03;0.98;;;;;;;25.71;28.04;92080.47;4994759;28;20018;-75
2022/05/28 08:33:13;;;;;;;3.13;1.17;;;;;;;26.07;27.52;92080.28;5011553;28;20044;-75
2022/05/28 08:35:40;;;;;;;1.25;0.65;;;;;;;25.77;27.58;92078.88;5011632;28;20502;-75
2022/05/28 08:38:09;;;;;;;2.50;0.80;;;;;;;25.63;28.49;92072.84;5008925;28;20081;-75
2022/05/28 08:40:47;;;;;;;4.60;0.90;;;;;;;25.77;27.77;92073.53;5011489;28;20073;-75
2022/05/28 08:43:15;;;;;;;2.53;0.90;;;;;;;25.48;26.50;92067.53;4994198;28;20042;-75
2022/05/28 08:45:41;;;;;;;2.47;1.08;;;;;;;25.64;28.79;92075.13;5011787;28;20095;-75
2022/05/28 08:48:07;;;;;;;3.70;1.05;;;;;;;25.89;28.31;92075.00;5010360;28;20037;-75
2022/05/28 08:50:46;;;;;;;3.35;1.00;;;;;;;26.09;28.26;92066.47;5010263;28;20044;-75
2022/05/28 08:53:18;;;;;;;3.35;1.17;;;;;;;25.79;28.20;92065.09;4993833;28;20380;-75
2022/05/28 08:55:48;;;;;;;7.15;2.40;;;;;;;25.50;27.72;92069.84;4993991;28;20044;-75
2022/05/28 08:58:18;;;;;;;2.97;1.02;;;;;;;25.75;26.49;92073.16;4993803;28;20109;-75
2022/05/28 09:00:49;;;;;;;2.70;0.98;;;;;;;26.07;27.99;92063.44;5009974;28;20116;-75
2022/05/28 09:03:19;;;;;;;1.52;0.85;;;;;;;26.31;26.67;92061.72;4991477;28;20069;-75
2022/05/28 09:06:03;;;;;;;3.45;0.90;;;;;;;25.88;26.08;92060.09;4991402;28;20489;-75
2022/05/28 09:08:43;;;;;;;3.80;1.00;;;;;;;26.24;27.51;92061.78;4991671;28;20039;-75
2022/05/28 09:11:35;;;;;;;1.77;0.88;;;;;;;26.56;25.93;92064.25;5006151;28;20120;-75
2022/05/28 09:14:08;;;;;;;5.93;0.90;;;;;;;26.79;25.41;92064.44;4986930;28;20049;-75
2022/05/28 09:16:38;;;;;;;2.25;0.90;;;;;;;26.95;26.42;92060.44;4993752;28;20048;-75
2022/05/28 09:19:11;;;;;;;3.20;0.88;;;;;;;27.05;24.31;92056.88;4993939;28;20030;-75
2022/05/28 09:21:39;;;;;;;3.55;0.85;;;;;;;26.44;25.30;92062.78;4993881;28;20503;-75
2022/05/28 09:24:09;;;;;;;3.38;0.73;;;;;;;26.63;24.05;92060.75;4992218;28;20507;-75
2022/05/28 09:26:59;;;;;;;4.13;1.10;;;;;;;26.61;25.92;92057.69;5005870;28;20084;-77
2022/05/28 09:29:46;;;;;;;1.58;1.00;;;;;;;26.75;25.38;92058.34;4994238;28;20060;-75
2022/05/28 09:32:36;;;;;;;2.35;0.88;;;;;;;26.63;23.99;92034.66;4999851;28;20030;-75
2022/05/28 09:35:22;;;;;;;2.05;0.70;;;;;;;26.66;22.14;92039.25;5004437;28;20037;-75
2022/05/28 09:38:08;;;;;;;2.22;0.90;;;;;;;26.71;25.71;92046.09;4957755;28;20058;-75
2022/05/28 09:40:50;;;;;;;1.75;0.90;;;;;;;26.72;23.32;92048.38;4976034;28;20034;-75
2022/05/28 09:43:44;;;;;;;3.17;1.00;;;;;;;27.02;24.66;92060.38;4976032;28;20030;-76
2022/05/28 09:46:31;;;;;;;2.50;1.10;;;;;;;27.04;24.89;92058.03;4985631;28;20053;-76
2022/05/28 09:49:02;;;;;;;4.25;1.00;;;;;;;27.15;23.80;92052.56;4988953;28;20496;-76
2022/05/28 09:51:30;;;;;;;5.88;0.90;;;;;;;27.15;24.56;92047.94;4984801;28;20114;-76
2022/05/28 09:54:24;;;;;;;2.20;0.90;;;;;;;26.80;22.45;92049.09;4991037;28;20030;-77
2022/05/28 09:57:03;;;;;;;3.50;1.27;;;;;;;26.69;21.38;92056.47;4986193;28;20051;-78
2022/05/28 09:59:44;;;;;;;6.43;0.80;;;;;;;26.48;20.74;92050.09;4977924;28;20081;-76
2022/05/28 10:02:33;;;;;;;2.17;1.00;;;;;;;26.45;24.45;92053.56;4986450;28;20128;-75
2022/05/28 10:05:16;;;;;;;2.53;0.80;;;;;;;26.48;23.46;92050.09;4977338;28;20787;-76
2022/05/28 10:07:43;;;;;;;4.50;0.82;;;;;;;26.63;24.11;92036.59;4990191;28;20034;-78
2022/05/28 10:10:18;;;;;;;2.70;1.00;;;;;;;26.71;22.40;92046.09;4986577;28;20035;-83
2022/05/28 10:12:44;;;;;;;3.10;0.80;;;;;;;26.71;23.33;92036.13;4995660;28;20034;-77
2022/05/28 10:15:11;;;;;;;1.58;0.82;;;;;;;26.89;24.09;92035.94;4969994;28;20497;-76
2022/05/28 10:17:38;;;;;;;6.57;1.00;;;;;;;26.72;23.12;92034.94;4988214;28;20030;-76
2022/05/28 10:20:15;;;;;;;2.50;1.00;;;;;;;26.70;22.47;92037.25;4981715;28;20045;-76
2022/05/28 10:22:41;;;;;;;3.95;1.10;;;;;;;26.65;22.15;92031.59;4988053;28;20030;-76
2022/05/28 10:25:37;;;;;;;1.52;0.90;;;;;;;25.76;22.07;92023.00;4998726;28;20034;-77
2022/05/28 10:28:04;;;;;;;1.73;1.00;;;;;;;26.20;23.14;92028.88;4994953;28;20038;-76
2022/05/28 10:30:34;;;;;;;4.68;0.80;;;;;;;26.55;25.08;92042.03;4995374;28;20061;-77
2022/05/28 10:33:08;;;;;;;1.65;0.85;;;;;;;26.88;23.78;92033.66;4996593;28;20049;-78
2022/05/28 10:35:34;;;;;;;1.60;0.98;;;;;;;26.97;23.28;92042.75;4995971;28;20125;-77
2022/05/28 10:38:21;;;;;;;1.42;0.80;;;;;;;26.51;21.72;92029.75;4997141;28;20113;-78
2022/05/28 10:40:53;;;;;;;5.57;0.85;;;;;;;26.14;21.73;92036.56;4996453;28;20038;-77
2022/05/28 10:43:49;;;;;;;1.55;0.98;;;;;;;25.68;22.40;92032.22;4993772;28;20034;-77
2022/05/28 10:46:33;;;;;;;6.75;1.08;;;;;;;25.46;22.45;92031.56;4972363;28;20346;-77
2022/05/28 10:49:23;;;;;;;2.28;0.90;;;;;;;25.90;22.88;92033.66;5005732;28;20038;-79
2022/05/28 10:51:59;;;;;;;5.68;1.10;;;;;;;26.35;23.34;92028.34;4996775;28;20030;-80
2022/05/28 10:54:46;;;;;;;2.17;0.98;;;;;;;26.56;23.06;92024.00;5005425;28;20042;-79
2022/05/28 10:57:44;;;;;;;2.58;1.10;;;;;;;26.61;21.23;92023.56;5006512;28;20030;-80
2022/05/28 11:00:21;;;;;;;1.38;0.80;;;;;;;26.77;21.20;92017.66;4999946;28;20109;-79
2022/05/28 11:03:13;;;;;;;4.45;1.20;;;;;;;26.77;21.22;92018.44;4995733;28;20034;-78
2022/05/28 11:05:41;;;;;;;2.13;1.10;;;;;;;26.78;22.78;92021.88;4994477;28;20038;-78
2022/05/28 11:08:31;;;;;;;3.28;0.90;;;;;;;26.93;23.70;92014.41;4993861;28;20030;-77
2022/05/28 11:11:28;;;;;;;1.73;0.82;;;;;;;27.18;21.93;92014.91;5005488;28;20050;-79
2022/05/28 11:14:30;;;;;;;2.58;0.90;;;;;;;27.05;19.44;92011.22;4995024;28;20038;-79
2022/05/28 11:17:08;;;;;;;4.63;1.10;;;;;;;27.12;22.72;92002.31;5004090;28;20026;-77
2022/05/28 11:19:55;;;;;;;3.20;0.80;;;;;;;27.05;20.38;92015.84;4997129;28;20027;-75
2022/05/28 11:22:59;;;;;;;1.52;0.80;;;;;;;26.48;20.24;91992.97;4986231;28;20111;-78
2022/05/28 11:25:32;;;;;;;1.80;0.93;;;;;;;26.76;22.50;92000.78;4992892;28;20184;-79
2022/05/28 11:28:35;;;;;;;1.15;0.70;;;;;;;26.96;22.81;92000.97;4995151;28;20031;-77
2022/05/28 11:31:27;;;;;;;3.97;1.20;;;;;;;27.20;22.02;91991.13;4998601;28;20030;-81
2022/05/28 11:33:54;;;;;;;1.10;0.90;;;;;;;27.06;21.75;91985.13;5009447;28;20034;-81
2022/05/28 11:39:12;;;;;;;2.03;0.70;;;;;;;26.70;19.77;91986.25;5000795;28;20050;-82
2022/05/28 11:42:21;;;;;;;5.53;1.10;;;;;;;26.47;20.24;91986.09;4977774;28;20042;-78
2022/05/28 11:44:54;;;;;;;2.33;1.10;;;;;;;26.24;20.57;91982.06;4944376;28;20047;-78
2022/05/28 11:47:32;;;;;;;1.60;0.77;;;;;;;25.61;21.43;91978.69;4992269;28;20026;-79
2022/05/28 11:53:34;;;;;;;1.17;0.90;;;;;;;25.47;20.67;91968.81;4988223;28;20141;-78
2022/05/28 11:56:11;;;;;;;3.75;0.88;;;;;;;25.49;21.48;91972.63;4987037;28;20058;-79
2022/05/28 11:58:44;;;;;;;1.65;1.10;;;;;;;25.46;21.35;91970.69;4981778;28;20030;-80
2022/05/28 12:01:13;;;;;;;4.13;1.10;;;;;;;25.12;21.60;91965.88;4987666;28;20096;-78
2022/05/28 12:03:44;;;;;;;4.85;1.13;;;;;;;25.46;22.26;91965.34;4972020;28;20097;-80
2022/05/28 12:06:34;;;;;;;1.80;0.82;;;;;;;25.48;21.37;91960.38;4988553;28;20101;-78